createdAt,value
2022-11-01T00:06:37.828Z,7.10
2022-11-01T00:13:02.289Z,7.10
2022-11-01T00:19:26.685Z,7.60
2022-11-01T00:25:50.976Z,6.60
2022-11-01T00:32:15.315Z,6.50
2022-11-01T00:38:39.574Z,6.50
2022-11-01T00:45:03.814Z,6.40
2022-11-01T00:51:30.773Z,6.70
2022-11-01T00:57:54.865Z,6.30
2022-11-01T01:04:19.144Z,6.30
2022-11-01T01:10:43.376Z,6.90
2022-11-01T01:17:07.632Z,6.00
2022-11-01T01:23:32.057Z,6.00
2022-11-01T01:29:58.893Z,6.20
2022-11-01T01:36:23.319Z,6.20
2022-11-01T01:42:50.307Z,5.50
2022-11-01T01:49:17.406Z,5.60
2022-11-01T01:55:41.731Z,5.70
2022-11-01T02:02:06.018Z,5.60
2022-11-01T02:08:30.324Z,5.40
2022-11-01T02:14:54.508Z,5.70
2022-11-01T02:21:21.921Z,5.60
2022-11-01T02:27:47.990Z,5.80
2022-11-01T02:34:13.170Z,6.00
2022-11-01T02:40:37.504Z,5.30
2022-11-01T02:47:00.274Z,5.40
2022-11-01T02:53:24.584Z,5.80
2022-11-01T02:59:48.880Z,5.60
2022-11-01T03:06:21.925Z,5.60
2022-11-01T03:12:49.230Z,5.60
2022-11-01T03:19:16.215Z,5.60
2022-11-01T03:26:01.276Z,5.90
2022-11-01T03:32:25.725Z,5.10
2022-11-01T03:38:49.953Z,5.30
2022-11-01T03:45:14.234Z,5.40
2022-11-01T03:51:38.506Z,6.00
2022-11-01T03:58:02.965Z,5.70
2022-11-01T04:04:27.535Z,5.90
2022-11-01T04:10:51.850Z,5.50
2022-11-01T04:17:14.516Z,5.70
2022-11-01T04:23:38.751Z,5.30
2022-11-01T04:30:02.980Z,5.60
2022-11-01T04:36:27.231Z,6.00
2022-11-01T04:42:51.447Z,6.30
2022-11-01T04:49:15.768Z,5.30
2022-11-01T04:55:39.996Z,6.00
2022-11-01T05:02:07.180Z,5.80
2022-11-01T05:08:31.450Z,6.10
2022-11-01T05:14:56.938Z,6.10
2022-11-01T05:21:21.381Z,5.90
2022-11-01T05:27:45.630Z,5.60
2022-11-01T05:34:09.920Z,5.30
2022-11-01T05:40:34.238Z,5.80
2022-11-01T05:46:58.433Z,5.80
2022-11-01T05:53:22.720Z,5.60
2022-11-01T05:59:46.983Z,5.80
2022-11-01T06:06:11.282Z,5.70
2022-11-01T06:12:35.471Z,5.10
2022-11-01T06:18:59.783Z,5.10
2022-11-01T06:25:24.037Z,5.40
2022-11-01T06:31:48.316Z,5.80
2022-11-01T06:38:12.613Z,5.40
2022-11-01T06:44:36.825Z,4.80
2022-11-01T06:51:01.064Z,4.60
2022-11-01T06:57:25.337Z,4.60
2022-11-01T07:03:49.563Z,4.50
2022-11-01T07:10:13.859Z,4.60
2022-11-01T07:16:38.089Z,4.20
2022-11-01T07:23:02.611Z,4.40
2022-11-01T07:29:27.297Z,4.40
2022-11-01T07:35:51.597Z,5.00
2022-11-01T07:42:15.852Z,4.40
2022-11-01T07:48:42.704Z,4.60
2022-11-01T07:55:07.004Z,4.80
2022-11-01T08:01:31.496Z,4.60
2022-11-01T08:07:55.866Z,4.50
2022-11-01T08:14:20.411Z,4.60
2022-11-01T08:20:44.855Z,4.40
2022-11-01T08:27:09.136Z,4.40
2022-11-01T08:33:33.389Z,4.70
2022-11-01T08:39:57.920Z,4.60
2022-11-01T08:46:22.253Z,3.90
2022-11-01T08:52:46.432Z,4.00
2022-11-01T08:59:10.871Z,4.40
2022-11-01T09:05:35.176Z,4.70
2022-11-01T09:11:59.421Z,4.40
2022-11-01T09:18:23.789Z,3.80
2022-11-01T09:24:48.402Z,4.20
2022-11-01T09:31:20.821Z,4.20
2022-11-01T09:37:46.006Z,4.10
2022-11-01T09:44:10.235Z,4.30
2022-11-01T09:50:40.024Z,3.80
2022-11-01T09:57:22.841Z,3.60
2022-11-01T10:04:08.423Z,3.80
2022-11-01T10:10:36.837Z,3.90
2022-11-01T10:16:57.105Z,3.60
2022-11-01T10:23:26.972Z,4.50
2022-11-01T10:30:06.269Z,4.80
2022-11-01T10:36:30.695Z,4.70
2022-11-01T10:42:54.981Z,4.00
2022-11-01T10:49:40.515Z,4.10
2022-11-01T10:56:17.468Z,4.50
2022-11-01T11:02:44.299Z,4.20
2022-11-01T11:09:08.535Z,4.20
2022-11-01T11:15:39.016Z,4.60
2022-11-01T11:22:03.500Z,4.20
2022-11-01T11:28:27.735Z,4.30
2022-11-01T11:34:54.665Z,3.90
2022-11-01T11:41:21.880Z,4.80
2022-11-01T11:47:46.094Z,5.10
2022-11-01T11:54:16.058Z,4.70
2022-11-01T12:00:40.497Z,5.30
2022-11-01T12:07:07.665Z,5.10
2022-11-01T12:13:34.866Z,5.20
2022-11-01T12:20:04.896Z,4.80
2022-11-01T12:26:29.599Z,5.30
2022-11-01T12:32:59.530Z,4.70
2022-11-01T12:45:39.148Z,4.60
2022-11-01T12:52:03.423Z,5.10
2022-11-01T12:58:30.872Z,5.20
2022-11-01T13:05:06.830Z,5.00
2022-11-01T13:11:37.095Z,5.40
2022-11-01T13:18:13.350Z,5.30
2022-11-01T13:24:37.645Z,5.10
2022-11-01T13:31:04.651Z,4.80
2022-11-01T13:37:34.609Z,5.00
2022-11-01T13:44:07.518Z,4.60
2022-11-01T13:50:37.775Z,5.50
2022-11-01T13:57:02.065Z,4.80
2022-11-01T14:03:32.535Z,5.60
2022-11-01T14:10:15.081Z,5.60
2022-11-01T14:16:55.064Z,5.00
2022-11-01T14:23:31.961Z,5.00
2022-11-01T14:29:56.338Z,4.90
2022-11-01T14:36:20.968Z,5.50
2022-11-01T14:42:45.262Z,5.10
2022-11-01T14:49:27.736Z,5.50
2022-11-01T14:55:54.953Z,5.30
2022-11-01T15:02:25.028Z,5.50
2022-11-01T15:09:01.665Z,5.60
2022-11-01T15:15:25.964Z,5.20
2022-11-01T15:21:50.274Z,5.40
2022-11-01T15:28:17.848Z,5.00
2022-11-01T15:34:42.047Z,5.40
2022-11-01T15:41:11.895Z,5.60
2022-11-01T15:47:39.212Z,5.30
2022-11-01T15:54:03.482Z,5.80
2022-11-01T16:00:27.679Z,5.70
2022-11-01T16:06:51.915Z,5.80
2022-11-01T16:13:16.088Z,5.50
2022-11-01T16:19:40.309Z,5.80
2022-11-01T16:26:07.519Z,5.40
2022-11-01T16:32:31.734Z,5.30
2022-11-01T16:38:56.324Z,5.50
2022-11-01T16:45:20.644Z,6.20
2022-11-01T16:51:45.072Z,5.70
2022-11-01T16:58:09.351Z,6.00
2022-11-01T17:04:33.646Z,5.80
2022-11-01T17:11:00.506Z,5.30
2022-11-01T17:17:24.927Z,6.10
2022-11-01T17:23:49.340Z,5.60
2022-11-01T17:30:13.657Z,6.20
2022-11-01T17:36:37.895Z,5.60
2022-11-01T17:43:02.181Z,5.90
2022-11-01T17:49:26.387Z,5.80
2022-11-01T17:55:50.716Z,5.30
2022-11-01T18:02:15.296Z,5.90
2022-11-01T18:08:39.900Z,6.10
2022-11-01T18:15:06.761Z,5.40
2022-11-01T18:21:29.502Z,6.30
2022-11-01T18:27:53.408Z,5.90
2022-11-01T18:34:16.953Z,6.20
2022-11-01T18:40:50.421Z,6.60
2022-11-01T18:47:17.966Z,6.10
2022-11-01T18:53:42.220Z,6.70
2022-11-01T19:00:12.274Z,6.10
2022-11-01T19:06:42.123Z,6.60
2022-11-01T19:13:21.114Z,6.30
2022-11-01T19:19:45.324Z,6.20
2022-11-01T19:26:12.654Z,6.30
2022-11-01T19:32:39.647Z,6.50
2022-11-01T19:39:04.133Z,6.60
2022-11-01T19:45:28.462Z,6.70
2022-11-01T19:51:53.064Z,5.90
2022-11-01T19:58:23.560Z,6.30
2022-11-01T20:04:56.846Z,5.90
2022-11-01T20:11:21.152Z,6.30
2022-11-01T20:24:14.557Z,6.60
2022-11-01T20:30:38.835Z,6.40
2022-11-01T20:37:29.577Z,6.50
2022-11-01T20:43:47.644Z,6.10
2022-11-01T20:50:11.863Z,5.90
2022-11-01T20:56:36.194Z,6.70
2022-11-01T21:03:00.522Z,6.50
2022-11-01T21:09:27.697Z,6.20
2022-11-01T21:16:04.200Z,6.90
2022-11-01T21:22:28.529Z,6.00
2022-11-01T21:28:46.383Z,6.50
2022-11-01T21:35:10.560Z,6.30
2022-11-01T21:41:34.960Z,6.60
2022-11-01T21:47:59.294Z,6.30
2022-11-01T21:54:23.471Z,6.40
2022-11-01T22:00:47.885Z,7.00
2022-11-01T22:07:12.099Z,6.70
2022-11-01T22:13:36.309Z,7.00
2022-11-01T22:19:53.191Z,7.20
2022-11-01T22:26:17.440Z,6.50
2022-11-01T22:32:41.643Z,7.30
2022-11-01T22:39:11.728Z,6.90
2022-11-01T22:45:36.252Z,6.80
2022-11-01T22:52:00.529Z,7.00
2022-11-01T22:58:24.829Z,6.80
2022-11-01T23:04:49.038Z,6.80
2022-11-01T23:11:22.268Z,6.30
2022-11-01T23:17:37.854Z,6.20
2022-11-01T23:24:02.098Z,7.10
2022-11-01T23:30:26.283Z,7.30
2022-11-01T23:36:50.627Z,7.10
2022-11-01T23:43:17.598Z,7.30
2022-11-01T23:49:42.096Z,6.70
2022-11-01T23:56:09.395Z,7.50
